createdAt,value
2018-06-16T00:01:48.444Z,23.03
2018-06-16T00:04:17.313Z,23.02
2018-06-16T00:06:45.228Z,23.01
2018-06-16T00:09:13.222Z,23.01
2018-06-16T00:11:41.053Z,23.00
2018-06-16T00:14:08.868Z,23.00
2018-06-16T00:16:36.744Z,22.99
2018-06-16T00:19:04.625Z,22.98
2018-06-16T00:21:32.529Z,22.97
2018-06-16T00:24:00.403Z,22.97
2018-06-16T00:26:29.275Z,22.96
2018-06-16T00:28:57.163Z,22.94
2018-06-16T00:31:25.061Z,22.94
2018-06-16T00:33:53.261Z,22.94
2018-06-16T00:36:21.066Z,22.94
2018-06-16T00:38:48.942Z,22.94
2018-06-16T00:41:17.035Z,22.93
2018-06-16T00:43:44.852Z,22.94
2018-06-16T00:46:12.789Z,22.94
2018-06-16T00:48:40.827Z,22.93
2018-06-16T00:51:08.704Z,22.91
2018-06-16T00:53:36.661Z,22.91
2018-06-16T00:56:04.714Z,22.92
2018-06-16T00:58:32.645Z,22.90
2018-06-16T01:01:00.649Z,22.90
2018-06-16T01:03:28.517Z,22.90
2018-06-16T01:05:57.242Z,22.89
2018-06-16T01:08:25.118Z,22.89
2018-06-16T01:10:53.068Z,22.87
2018-06-16T01:13:20.975Z,22.87
2018-06-16T01:15:48.826Z,22.87
2018-06-16T01:18:16.668Z,22.88
2018-06-16T01:20:44.615Z,22.86
2018-06-16T01:23:12.994Z,22.84
2018-06-16T01:25:40.825Z,22.85
2018-06-16T01:28:08.718Z,22.83
2018-06-16T01:30:37.438Z,22.82
2018-06-16T01:33:05.408Z,22.82
2018-06-16T01:35:33.245Z,22.82
2018-06-16T01:38:01.201Z,22.81
2018-06-16T01:40:29.168Z,22.81
2018-06-16T01:42:57.038Z,22.81
2018-06-16T01:45:25.545Z,22.79
2018-06-16T01:47:53.535Z,22.79
2018-06-16T01:50:21.404Z,22.78
2018-06-16T01:52:49.403Z,22.78
2018-06-16T01:55:17.318Z,22.76
2018-06-16T01:57:46.384Z,22.77
2018-06-16T02:00:14.360Z,22.76
2018-06-16T02:02:42.261Z,22.73
2018-06-16T02:05:10.174Z,22.74
2018-06-16T02:07:37.974Z,22.74
2018-06-16T02:10:07.026Z,22.74
2018-06-16T02:12:34.958Z,22.74
2018-06-16T02:15:02.833Z,22.72
2018-06-16T02:17:30.864Z,22.72
2018-06-16T02:19:58.766Z,22.71
2018-06-16T02:22:26.877Z,22.70
2018-06-16T02:24:55.050Z,22.69
2018-06-16T02:27:24.003Z,22.71
2018-06-16T02:29:51.761Z,22.71
2018-06-16T02:32:19.565Z,22.70
2018-06-16T02:34:47.541Z,22.69
2018-06-16T02:37:15.405Z,22.69
2018-06-16T02:39:43.330Z,22.69
2018-06-16T02:42:11.288Z,22.69
2018-06-16T02:44:39.163Z,22.69
2018-06-16T02:47:07.019Z,22.68
2018-06-16T02:49:34.913Z,22.68
2018-06-16T02:52:02.839Z,22.67
2018-06-16T02:54:32.111Z,22.66
2018-06-16T02:57:00.099Z,22.65
2018-06-16T02:59:27.971Z,22.66
2018-06-16T03:01:55.793Z,22.67
2018-06-16T03:04:23.741Z,22.65
2018-06-16T03:06:52.593Z,22.65
2018-06-16T03:09:20.595Z,22.64
2018-06-16T03:11:48.458Z,22.65
2018-06-16T03:14:16.314Z,22.64
2018-06-16T03:16:44.390Z,22.64
2018-06-16T03:19:12.276Z,22.63
2018-06-16T03:21:40.195Z,22.64
2018-06-16T03:24:08.098Z,22.64
2018-06-16T03:26:35.925Z,22.63
2018-06-16T03:29:03.852Z,22.63
2018-06-16T03:31:32.665Z,22.62
2018-06-16T03:34:00.601Z,22.61
2018-06-16T03:36:29.099Z,22.59
2018-06-16T03:38:57.887Z,22.60
2018-06-16T03:41:25.898Z,22.61
2018-06-16T03:43:53.833Z,22.60
2018-06-16T03:46:21.748Z,22.62
2018-06-16T03:48:49.770Z,22.61
2018-06-16T03:51:18.524Z,22.61
2018-06-16T03:53:46.476Z,22.62
2018-06-16T03:56:14.244Z,22.64
2018-06-16T03:58:42.077Z,22.65
2018-06-16T04:01:10.790Z,22.65
2018-06-16T04:03:38.799Z,22.67
2018-06-16T04:06:06.727Z,22.67
2018-06-16T04:08:34.849Z,22.66
2018-06-16T04:11:02.779Z,22.66
2018-06-16T04:13:30.666Z,22.65
2018-06-16T04:15:58.657Z,22.66
2018-06-16T04:18:26.608Z,22.68
2018-06-16T04:20:54.519Z,22.67
2018-06-16T04:23:22.425Z,22.69
2018-06-16T04:25:50.223Z,22.70
2018-06-16T04:28:18.241Z,22.71
2018-06-16T04:30:46.106Z,22.72
2018-06-16T04:33:13.988Z,22.73
2018-06-16T04:35:41.949Z,22.74
2018-06-16T04:38:09.793Z,22.74
2018-06-16T04:40:37.591Z,22.74
2018-06-16T04:43:05.567Z,22.74
2018-06-16T04:45:33.483Z,22.74
2018-06-16T04:48:01.384Z,22.76
2018-06-16T04:50:29.218Z,22.76
2018-06-16T04:52:57.039Z,22.75
2018-06-16T04:55:24.940Z,22.76
2018-06-16T04:57:52.722Z,22.76
2018-06-16T05:00:20.497Z,22.75
2018-06-16T05:02:48.450Z,22.75
2018-06-16T05:05:16.242Z,22.75
2018-06-16T05:07:44.082Z,22.76
2018-06-16T05:10:11.890Z,22.78
2018-06-16T05:12:39.682Z,22.76
2018-06-16T05:15:07.813Z,22.76
2018-06-16T05:17:35.612Z,22.78
2018-06-16T05:20:03.407Z,22.76
2018-06-16T05:22:31.174Z,22.75
2018-06-16T05:24:59.216Z,22.74
2018-06-16T05:27:27.213Z,22.74
2018-06-16T05:29:54.973Z,22.73
2018-06-16T05:32:22.914Z,22.74
2018-06-16T05:34:50.783Z,22.75
2018-06-16T05:37:18.564Z,22.76
2018-06-16T05:39:46.277Z,22.74
2018-06-16T05:42:14.024Z,22.77
2018-06-16T05:44:41.924Z,22.79
2018-06-16T05:47:09.819Z,22.80
2018-06-16T05:49:37.816Z,22.81
2018-06-16T05:52:05.566Z,22.83
2018-06-16T05:54:33.658Z,22.84
2018-06-16T05:57:01.583Z,22.85
2018-06-16T05:59:29.537Z,22.86
2018-06-16T06:01:57.240Z,22.88
2018-06-16T06:04:24.867Z,22.90
2018-06-16T06:06:52.666Z,22.91
2018-06-16T06:09:20.318Z,22.94
2018-06-16T06:11:48.324Z,22.94
2018-06-16T06:14:16.073Z,22.97
2018-06-16T06:16:44.157Z,22.99
2018-06-16T06:19:11.807Z,23.02
2018-06-16T06:21:39.456Z,23.06
2018-06-16T06:24:07.436Z,23.10
2018-06-16T06:26:35.108Z,23.10
2018-06-16T06:29:02.761Z,23.15
2018-06-16T06:31:30.679Z,23.18
2018-06-16T06:33:58.665Z,23.22
2018-06-16T06:36:26.629Z,23.27
2018-06-16T06:38:54.913Z,23.31
2018-06-16T06:41:22.569Z,23.36
2018-06-16T06:43:50.217Z,23.39
2018-06-16T06:46:18.225Z,23.42
2018-06-16T06:48:45.927Z,23.45
2018-06-16T06:51:13.576Z,23.47
2018-06-16T06:53:41.278Z,23.49
2018-06-16T06:56:08.989Z,23.50
2018-06-16T06:58:36.874Z,23.52
2018-06-16T07:01:04.818Z,23.55
2018-06-16T07:03:32.540Z,23.60
2018-06-16T07:06:00.192Z,23.63
2018-06-16T07:08:28.128Z,23.69
2018-06-16T07:10:55.956Z,23.75
2018-06-16T07:13:23.550Z,23.80
2018-06-16T07:15:51.520Z,23.84
2018-06-16T07:18:19.385Z,23.88
2018-06-16T07:20:47.261Z,23.91
2018-06-16T07:23:14.876Z,23.94
2018-06-16T07:25:42.566Z,23.98
2018-06-16T07:28:10.576Z,23.99
2018-06-16T07:30:38.227Z,24.00
2018-06-16T07:33:06.327Z,24.02
2018-06-16T07:35:34.190Z,24.07
2018-06-16T07:38:01.977Z,24.07
2018-06-16T07:40:29.842Z,24.09
2018-06-16T07:42:57.797Z,24.13
2018-06-16T07:45:25.565Z,24.13
2018-06-16T07:47:53.648Z,24.14
2018-06-16T07:50:21.468Z,24.13
2018-06-16T07:52:49.232Z,24.09
2018-06-16T07:55:17.122Z,24.11
2018-06-16T07:57:44.823Z,24.14
2018-06-16T08:00:12.717Z,24.15
2018-06-16T08:02:40.463Z,24.16
2018-06-16T08:05:08.702Z,24.18
2018-06-16T08:07:36.637Z,24.21
2018-06-16T08:10:04.492Z,24.22
2018-06-16T08:12:32.163Z,24.25
2018-06-16T08:14:59.956Z,24.26
2018-06-16T08:17:27.874Z,24.29
2018-06-16T08:19:55.589Z,24.30
2018-06-16T08:22:23.393Z,24.31
2018-06-16T08:24:51.300Z,24.33
2018-06-16T08:27:19.014Z,24.36
2018-06-16T08:29:46.743Z,24.40
2018-06-16T08:32:14.677Z,24.41
2018-06-16T08:34:42.502Z,24.43
2018-06-16T08:37:11.081Z,24.47
2018-06-16T08:39:38.895Z,24.49
2018-06-16T08:42:06.655Z,24.50
2018-06-16T08:44:34.432Z,24.51
2018-06-16T08:47:02.370Z,24.53
2018-06-16T08:49:30.142Z,24.54
2018-06-16T08:51:58.069Z,24.54
2018-06-16T08:54:25.857Z,24.54
2018-06-16T08:56:53.637Z,24.54
2018-06-16T08:59:21.407Z,24.56
2018-06-16T09:01:49.152Z,24.58
2018-06-16T09:04:17.016Z,24.58
2018-06-16T09:06:44.787Z,24.58
2018-06-16T09:09:12.832Z,24.59
2018-06-16T09:11:40.558Z,24.60
2018-06-16T09:14:08.303Z,24.63
2018-06-16T09:16:36.131Z,24.64
2018-06-16T09:19:04.184Z,24.67
2018-06-16T09:21:31.935Z,24.69
2018-06-16T09:23:59.714Z,24.71
2018-06-16T09:26:27.557Z,24.73
2018-06-16T09:28:55.433Z,24.75
2018-06-16T09:31:23.343Z,24.74
2018-06-16T09:33:51.247Z,24.75
2018-06-16T09:36:18.975Z,24.75
2018-06-16T09:38:46.737Z,24.77
2018-06-16T09:41:14.511Z,24.78
2018-06-16T09:43:42.439Z,24.78
2018-06-16T09:46:10.168Z,24.80
2018-06-16T09:48:37.980Z,24.81
2018-06-16T09:51:05.953Z,24.81
2018-06-16T09:53:33.791Z,24.80
2018-06-16T09:56:01.621Z,24.82
2018-06-16T09:58:29.473Z,24.83
2018-06-16T10:00:57.291Z,24.84
2018-06-16T10:03:25.175Z,24.81
2018-06-16T10:05:52.877Z,24.79
2018-06-16T10:08:20.704Z,24.77
2018-06-16T10:10:48.510Z,24.76
2018-06-16T10:13:16.361Z,24.77
2018-06-16T10:15:44.203Z,24.76
2018-06-16T10:18:11.968Z,24.76
2018-06-16T10:20:39.743Z,24.75
2018-06-16T10:23:07.474Z,24.75
2018-06-16T10:25:35.191Z,24.76
2018-06-16T10:28:03.213Z,24.76
2018-06-16T10:30:31.211Z,24.76
2018-06-16T10:32:59.706Z,24.76
2018-06-16T10:35:28.257Z,24.79
2018-06-16T10:37:55.997Z,24.82
2018-06-16T10:40:23.940Z,24.87
2018-06-16T10:42:51.696Z,24.90
2018-06-16T10:45:19.415Z,24.95
2018-06-16T10:47:47.227Z,24.97
2018-06-16T10:50:15.021Z,24.99
2018-06-16T10:52:42.862Z,25.02
2018-06-16T10:55:10.690Z,25.05
2018-06-16T10:57:38.505Z,25.08
2018-06-16T11:00:06.414Z,25.12
2018-06-16T11:02:34.180Z,25.14
2018-06-16T11:05:01.887Z,25.19
2018-06-16T11:07:29.764Z,25.21
2018-06-16T11:09:58.085Z,25.23
2018-06-16T11:12:25.840Z,25.27
2018-06-16T11:14:53.614Z,25.31
2018-06-16T11:17:21.496Z,25.33
2018-06-16T11:19:49.407Z,25.36
2018-06-16T11:22:17.134Z,25.40
2018-06-16T11:24:44.917Z,25.43
2018-06-16T11:27:12.752Z,25.45
2018-06-16T11:29:40.476Z,25.46
2018-06-16T11:32:08.361Z,25.48
2018-06-16T11:34:36.119Z,25.51
2018-06-16T11:37:03.893Z,25.54
2018-06-16T11:39:31.697Z,25.55
2018-06-16T11:41:59.435Z,25.57
2018-06-16T11:44:27.327Z,25.58
2018-06-16T11:46:55.150Z,25.58
2018-06-16T11:49:23.014Z,25.60
2018-06-16T11:51:50.770Z,25.60
2018-06-16T11:54:18.456Z,25.61
2018-06-16T11:56:46.232Z,25.62
2018-06-16T11:59:14.100Z,25.62
2018-06-16T12:01:41.908Z,25.64
2018-06-16T12:04:09.675Z,25.65
2018-06-16T12:06:37.586Z,25.66
2018-06-16T12:09:08.250Z,25.65
2018-06-16T12:11:36.218Z,25.63
2018-06-16T12:14:04.029Z,25.61
2018-06-16T12:16:31.841Z,25.62
2018-06-16T12:18:59.632Z,25.63
2018-06-16T12:21:27.720Z,25.64
2018-06-16T12:23:55.493Z,25.68
2018-06-16T12:26:23.221Z,25.70
2018-06-16T12:28:50.921Z,25.72
2018-06-16T12:31:18.873Z,25.71
2018-06-16T12:33:46.619Z,25.72
2018-06-16T12:36:14.461Z,25.72
2018-06-16T12:38:42.187Z,25.72
2018-06-16T12:41:10.121Z,25.73
2018-06-16T12:43:37.766Z,25.74
2018-06-16T12:46:05.516Z,25.74
2018-06-16T12:48:33.589Z,25.74
2018-06-16T12:51:01.354Z,25.73
2018-06-16T12:53:29.190Z,25.77
2018-06-16T12:55:57.067Z,25.77
2018-06-16T12:58:24.725Z,25.79
2018-06-16T13:00:52.636Z,25.83
2018-06-16T13:03:20.655Z,25.88
2018-06-16T13:05:48.460Z,25.92
2018-06-16T13:08:16.396Z,25.95
2018-06-16T13:10:44.185Z,26.02
2018-06-16T13:13:12.082Z,26.06
2018-06-16T13:15:39.914Z,26.12
2018-06-16T13:18:07.780Z,26.18
2018-06-16T13:20:35.473Z,26.21
2018-06-16T13:23:03.393Z,26.23
2018-06-16T13:25:31.216Z,26.20
2018-06-16T13:27:58.906Z,26.14
2018-06-16T13:30:26.851Z,26.07
2018-06-16T13:32:54.602Z,26.00
2018-06-16T13:35:22.412Z,25.93
2018-06-16T13:37:50.382Z,25.85
2018-06-16T13:40:18.173Z,25.74
2018-06-16T13:42:45.937Z,25.63
2018-06-16T13:45:13.694Z,25.61
2018-06-16T13:47:41.501Z,25.64
2018-06-16T13:50:09.336Z,25.73
2018-06-16T13:52:37.256Z,25.86
2018-06-16T13:55:05.306Z,25.95
2018-06-16T13:57:33.061Z,26.04
2018-06-16T14:00:00.883Z,26.13
2018-06-16T14:02:28.816Z,26.17
2018-06-16T14:04:56.643Z,26.18
2018-06-16T14:07:24.653Z,26.09
2018-06-16T14:09:52.633Z,25.96
2018-06-16T14:12:20.421Z,25.85
2018-06-16T14:14:48.190Z,25.78
2018-06-16T14:17:15.972Z,25.79
2018-06-16T14:19:43.723Z,25.78
2018-06-16T14:22:11.613Z,25.69
2018-06-16T14:24:39.332Z,25.61
2018-06-16T14:27:07.085Z,25.58
2018-06-16T14:29:34.969Z,25.63
2018-06-16T14:32:02.777Z,25.60
2018-06-16T14:34:30.602Z,25.64
2018-06-16T14:36:58.288Z,25.62
2018-06-16T14:39:26.134Z,25.61
2018-06-16T14:41:54.111Z,25.63
2018-06-16T14:44:21.954Z,25.63
2018-06-16T14:46:49.679Z,25.79
2018-06-16T14:49:17.437Z,26.19
2018-06-16T14:51:45.269Z,26.39
2018-06-16T14:54:13.118Z,26.83
2018-06-16T14:56:41.015Z,26.82
2018-06-16T14:59:08.755Z,26.33
2018-06-16T15:01:36.562Z,26.12
2018-06-16T15:04:04.414Z,25.95
2018-06-16T15:06:32.359Z,25.84
2018-06-16T15:09:00.166Z,25.80
2018-06-16T15:11:27.985Z,25.76
2018-06-16T15:13:55.819Z,25.64
2018-06-16T15:16:23.843Z,25.56
2018-06-16T15:18:51.629Z,25.49
2018-06-16T15:21:19.676Z,25.42
2018-06-16T15:23:47.530Z,25.38
2018-06-16T15:26:15.291Z,25.37
2018-06-16T15:28:43.129Z,25.40
2018-06-16T15:31:11.189Z,25.48
2018-06-16T15:33:39.012Z,25.59
2018-06-16T15:36:06.845Z,25.71
2018-06-16T15:38:34.677Z,25.83
2018-06-16T15:41:02.696Z,25.89
2018-06-16T15:43:30.461Z,25.94
2018-06-16T15:45:58.194Z,26.08
2018-06-16T15:48:25.897Z,26.40
2018-06-16T15:50:53.735Z,26.64
2018-06-16T15:53:21.540Z,26.47
2018-06-16T15:55:50.111Z,26.40
2018-06-16T15:58:18.071Z,26.37
2018-06-16T16:00:45.710Z,26.32
2018-06-16T16:03:13.407Z,26.28
2018-06-16T16:05:41.105Z,26.29
2018-06-16T16:08:08.752Z,26.34
2018-06-16T16:10:36.373Z,26.33
2018-06-16T16:13:04.279Z,26.28
2018-06-16T16:15:31.959Z,26.21
2018-06-16T16:17:59.607Z,26.11
2018-06-16T16:20:27.779Z,25.99
2018-06-16T16:22:55.401Z,25.92
2018-06-16T16:25:23.053Z,25.91
2018-06-16T16:27:51.067Z,25.88
2018-06-16T16:30:18.722Z,25.88
2018-06-16T16:32:46.698Z,25.92
2018-06-16T16:35:14.370Z,25.97
2018-06-16T16:37:42.038Z,26.02
2018-06-16T16:40:10.149Z,26.02
2018-06-16T16:42:38.361Z,25.95
2018-06-16T16:45:06.353Z,25.85
2018-06-16T16:47:34.166Z,25.78
2018-06-16T16:50:01.818Z,25.68
2018-06-16T16:52:29.677Z,25.59
2018-06-16T16:54:57.322Z,25.54
2018-06-16T16:57:25.246Z,25.59
2018-06-16T16:59:53.195Z,25.67
2018-06-16T17:02:20.928Z,25.71
2018-06-16T17:04:48.697Z,25.76
2018-06-16T17:07:16.620Z,25.75
2018-06-16T17:09:44.250Z,25.67
2018-06-16T17:12:12.285Z,25.59
2018-06-16T17:14:39.909Z,25.55
2018-06-16T17:17:07.689Z,25.56
2018-06-16T17:19:35.446Z,25.60
2018-06-16T17:22:03.135Z,25.63
2018-06-16T17:24:30.770Z,25.87
2018-06-16T17:26:58.435Z,26.35
2018-06-16T17:29:26.675Z,26.31
2018-06-16T17:31:54.965Z,26.54
2018-06-16T17:34:23.165Z,26.30
2018-06-16T17:36:51.097Z,26.13
2018-06-16T17:39:19.570Z,25.96
2018-06-16T17:41:47.470Z,25.89
2018-06-16T17:44:15.134Z,25.81
2018-06-16T17:46:43.152Z,25.77
2018-06-16T17:49:11.170Z,25.76
2018-06-16T17:51:38.786Z,25.78
2018-06-16T17:54:06.543Z,25.72
2018-06-16T17:56:34.902Z,25.64
2018-06-16T17:59:03.126Z,25.58
2018-06-16T18:01:30.741Z,25.52
2018-06-16T18:03:58.537Z,25.46
2018-06-16T18:06:26.278Z,25.43
2018-06-16T18:08:54.026Z,25.40
2018-06-16T18:11:21.760Z,25.36
2018-06-16T18:13:49.549Z,25.33
2018-06-16T18:16:17.251Z,25.31
2018-06-16T18:18:44.988Z,25.27
2018-06-16T18:21:12.692Z,25.30
2018-06-16T18:23:40.515Z,25.31
2018-06-16T18:26:08.429Z,25.29
2018-06-16T18:28:36.156Z,25.27
2018-06-16T18:31:03.849Z,25.27
2018-06-16T18:33:31.578Z,25.23
2018-06-16T18:35:59.315Z,25.20
2018-06-16T18:38:27.146Z,25.17
2018-06-16T18:40:54.965Z,25.14
2018-06-16T18:43:22.709Z,25.12
2018-06-16T18:45:50.448Z,25.08
2018-06-16T18:48:18.428Z,25.04
2018-06-16T18:50:46.749Z,25.00
2018-06-16T18:53:14.561Z,24.95
2018-06-16T18:55:42.425Z,24.92
2018-06-16T18:58:10.372Z,24.90
2018-06-16T19:00:38.142Z,24.89
2018-06-16T19:03:05.898Z,24.89
2018-06-16T19:05:33.723Z,24.90
2018-06-16T19:08:01.458Z,24.87
2018-06-16T19:10:29.265Z,24.84
2018-06-16T19:12:57.114Z,24.80
2018-06-16T19:15:24.935Z,24.75
2018-06-16T19:17:52.693Z,24.72
2018-06-16T19:20:20.459Z,24.68
2018-06-16T19:22:48.229Z,24.66
2018-06-16T19:25:16.054Z,24.63
2018-06-16T19:27:43.782Z,24.61
2018-06-16T19:30:11.885Z,24.59
2018-06-16T19:32:39.586Z,24.57
2018-06-16T19:35:07.385Z,24.55
2018-06-16T19:37:35.555Z,24.53
2018-06-16T19:40:03.373Z,24.51
2018-06-16T19:42:31.186Z,24.50
2018-06-16T19:44:59.164Z,24.47
2018-06-16T19:47:26.876Z,24.44
2018-06-16T19:49:54.598Z,24.43
2018-06-16T19:52:22.375Z,24.41
2018-06-16T19:54:50.251Z,24.39
2018-06-16T19:57:18.036Z,24.38
2018-06-16T19:59:45.835Z,24.34
2018-06-16T20:02:13.635Z,24.33
2018-06-16T20:04:41.393Z,24.31
2018-06-16T20:07:09.278Z,24.29
2018-06-16T20:09:37.241Z,24.27
2018-06-16T20:12:05.019Z,24.26
2018-06-16T20:14:32.880Z,24.23
2018-06-16T20:17:00.694Z,24.22
2018-06-16T20:19:28.531Z,24.21
2018-06-16T20:21:56.389Z,24.21
2018-06-16T20:24:24.224Z,24.20
2018-06-16T20:26:52.160Z,24.17
2018-06-16T20:29:20.137Z,24.15
2018-06-16T20:31:48.425Z,24.15
2018-06-16T20:34:16.356Z,24.14
2018-06-16T20:36:44.593Z,24.14
2018-06-16T20:39:13.739Z,24.14
2018-06-16T20:41:41.722Z,24.12
2018-06-16T20:44:09.479Z,24.10
2018-06-16T20:46:37.729Z,24.10
2018-06-16T20:49:05.723Z,24.08
2018-06-16T20:51:33.629Z,24.07
2018-06-16T20:54:01.590Z,24.06
2018-06-16T20:56:29.507Z,24.04
2018-06-16T20:58:57.695Z,24.03
2018-06-16T21:01:25.478Z,24.02
2018-06-16T21:03:53.482Z,24.01
2018-06-16T21:06:21.339Z,24.00
2018-06-16T21:08:49.659Z,24.00
2018-06-16T21:11:17.612Z,23.99
2018-06-16T21:13:46.721Z,23.98
2018-06-16T21:16:14.618Z,23.97
2018-06-16T21:18:42.543Z,23.96
2018-06-16T21:21:10.470Z,23.95
2018-06-16T21:23:39.565Z,23.94
2018-06-16T21:26:07.577Z,23.92
2018-06-16T21:28:35.517Z,23.91
2018-06-16T21:31:04.068Z,23.89
2018-06-16T21:33:32.324Z,23.90
2018-06-16T21:36:00.216Z,23.90
2018-06-16T21:38:28.141Z,23.88
2018-06-16T21:40:56.296Z,23.87
2018-06-16T21:43:24.533Z,23.85
2018-06-16T21:45:52.780Z,23.84
2018-06-16T21:48:20.602Z,23.84
2018-06-16T21:50:48.531Z,23.83
2018-06-16T21:53:16.485Z,23.81
2018-06-16T21:55:44.255Z,23.82
2018-06-16T21:58:12.056Z,23.81
2018-06-16T22:00:39.858Z,23.79
2018-06-16T22:03:07.717Z,23.79
2018-06-16T22:05:35.519Z,23.78
2018-06-16T22:08:08.987Z,23.77
2018-06-16T22:10:36.756Z,23.77
2018-06-16T22:13:04.563Z,23.76
2018-06-16T22:15:32.440Z,23.75
2018-06-16T22:18:00.174Z,23.74
2018-06-16T22:20:27.973Z,23.74
2018-06-16T22:22:55.802Z,23.72
2018-06-16T22:25:23.683Z,23.71
2018-06-16T22:27:51.461Z,23.70
2018-06-16T22:30:19.599Z,23.70
2018-06-16T22:32:47.419Z,23.69
2018-06-16T22:35:15.281Z,23.68
2018-06-16T22:37:43.359Z,23.67
2018-06-16T22:40:11.244Z,23.66
2018-06-16T22:42:39.090Z,23.67
2018-06-16T22:45:07.051Z,23.61
2018-06-16T22:47:34.841Z,23.66
2018-06-16T22:50:02.668Z,23.65
2018-06-16T22:52:30.435Z,23.64
2018-06-16T22:54:58.197Z,23.63
2018-06-16T22:57:25.948Z,23.62
2018-06-16T22:59:53.846Z,23.62
2018-06-16T23:02:21.646Z,23.61
2018-06-16T23:04:49.405Z,23.60
2018-06-16T23:07:17.528Z,23.60
2018-06-16T23:09:45.238Z,23.59
2018-06-16T23:12:14.119Z,23.58
2018-06-16T23:14:41.960Z,23.58
2018-06-16T23:17:09.854Z,23.55
2018-06-16T23:19:37.790Z,23.54
2018-06-16T23:22:05.589Z,23.54
2018-06-16T23:24:33.534Z,23.52
2018-06-16T23:27:01.298Z,23.52
2018-06-16T23:29:29.183Z,23.50
2018-06-16T23:31:57.021Z,23.49
2018-06-16T23:34:24.773Z,23.48
2018-06-16T23:36:52.644Z,23.48
2018-06-16T23:39:20.361Z,23.48
2018-06-16T23:41:48.149Z,23.45
2018-06-16T23:44:16.041Z,23.44
2018-06-16T23:46:43.737Z,23.43
2018-06-16T23:49:11.651Z,23.43
2018-06-16T23:51:39.606Z,23.42
2018-06-16T23:54:07.361Z,23.40
2018-06-16T23:56:35.160Z,23.40
2018-06-16T23:59:03.211Z,23.40
